sensor_id;sensor_type;location;lat;lon;timestamp;pressure;altitude;pressure_sealevel;temperature;humidity
8637;BME280;4356;49.068;8.658;2023-01-29T00:01:54;101117.06;;;14.79;34.39
8637;BME280;4356;49.068;8.658;2023-01-29T00:04:20;101102.69;;;14.71;34.33
8637;BME280;4356;49.068;8.658;2023-01-29T00:06:46;101109.09;;;14.78;34.34
8637;BME280;4356;49.068;8.658;2023-01-29T00:09:12;101087.78;;;14.67;34.56
8637;BME280;4356;49.068;8.658;2023-01-29T00:11:38;101094.06;;;14.67;34.16
8637;BME280;4356;49.068;8.658;2023-01-29T00:14:04;101107.41;;;14.77;34.24
8637;BME280;4356;49.068;8.658;2023-01-29T00:16:30;101112.31;;;14.73;34.15
8637;BME280;4356;49.068;8.658;2023-01-29T00:18:56;101100.78;;;14.71;34.26
8637;BME280;4356;49.068;8.658;2023-01-29T00:21:22;101107.41;;;14.77;33.72
8637;BME280;4356;49.068;8.658;2023-01-29T00:23:49;101116.38;;;14.77;34.32
8637;BME280;4356;49.068;8.658;2023-01-29T00:26:15;101104.34;;;14.72;34.01
8637;BME280;4356;49.068;8.658;2023-01-29T00:28:41;101108.59;;;14.74;34.07
8637;BME280;4356;49.068;8.658;2023-01-29T00:31:21;101097.94;;;14.73;34.32
8637;BME280;4356;49.068;8.658;2023-01-29T00:33:48;101106.88;;;14.73;34.16
8637;BME280;4356;49.068;8.658;2023-01-29T00:36:15;101096.09;;;14.65;34.40
8637;BME280;4356;49.068;8.658;2023-01-29T00:38:41;101116.91;;;14.73;34.19
8637;BME280;4356;49.068;8.658;2023-01-29T00:41:14;101115.69;;;14.75;33.93
8637;BME280;4356;49.068;8.658;2023-01-29T00:44:00;101113.16;;;14.74;34.38
8637;BME280;4356;49.068;8.658;2023-01-29T00:46:45;101121.28;;;14.74;34.23
8637;BME280;4356;49.068;8.658;2023-01-29T00:49:11;101115.88;;;14.74;34.06
8637;BME280;4356;49.068;8.658;2023-01-29T00:51:37;101101.81;;;14.70;34.14
8637;BME280;4356;49.068;8.658;2023-01-29T00:54:04;101085.06;;;14.59;34.05
8637;BME280;4356;49.068;8.658;2023-01-29T00:56:33;101103.69;;;14.70;33.89
8637;BME280;4356;49.068;8.658;2023-01-29T00:58:58;101101.81;;;14.70;34.03
8637;BME280;4356;49.068;8.658;2023-01-29T01:01:24;101110.97;;;14.69;33.92
8637;BME280;4356;49.068;8.658;2023-01-29T01:04:10;101109.78;;;14.72;33.99
8637;BME280;4356;49.068;8.658;2023-01-29T01:06:37;101106.56;;;14.68;33.79
8637;BME280;4356;49.068;8.658;2023-01-29T01:09:03;101112.66;;;14.70;34.26
8637;BME280;4356;49.068;8.658;2023-01-29T01:11:47;101113.50;;;14.71;34.08
8637;BME280;4356;49.068;8.658;2023-01-29T01:14:13;101106.38;;;14.70;33.97
8637;BME280;4356;49.068;8.658;2023-01-29T01:16:39;101111.47;;;14.73;33.75
8637;BME280;4356;49.068;8.658;2023-01-29T01:19:05;101116.22;;;14.71;34.23
8637;BME280;4356;49.068;8.658;2023-01-29T01:21:31;101099.97;;;14.63;33.67
8637;BME280;4356;49.068;8.658;2023-01-29T01:23:57;101107.06;;;14.72;33.63
8637;BME280;4356;49.068;8.658;2023-01-29T01:26:23;101118.91;;;14.71;33.65
8637;BME280;4356;49.068;8.658;2023-01-29T01:28:49;101113.00;;;14.67;34.05
8637;BME280;4356;49.068;8.658;2023-01-29T01:31:14;101117.88;;;14.72;34.02
8637;BME280;4356;49.068;8.658;2023-01-29T01:33:40;101126.00;;;14.72;34.01
8637;BME280;4356;49.068;8.658;2023-01-29T01:36:06;101115.84;;;14.66;33.83
8637;BME280;4356;49.068;8.658;2023-01-29T01:38:36;101121.63;;;14.71;33.60
8637;BME280;4356;49.068;8.658;2023-01-29T01:41:13;101128.03;;;14.70;33.77
8637;BME280;4356;49.068;8.658;2023-01-29T01:43:54;101125.16;;;14.71;34.13
8637;BME280;4356;49.068;8.658;2023-01-29T01:46:24;101120.94;;;14.69;34.10
8637;BME280;4356;49.068;8.658;2023-01-29T01:49:06;101116.69;;;14.66;33.47
8637;BME280;4356;49.068;8.658;2023-01-29T01:51:40;101115.03;;;14.65;34.02
8637;BME280;4356;49.068;8.658;2023-01-29T01:54:13;101108.41;;;14.68;33.73
8637;BME280;4356;49.068;8.658;2023-01-29T01:56:43;101111.78;;;14.70;33.79
8637;BME280;4356;49.068;8.658;2023-01-29T01:59:15;101104.19;;;14.65;33.57
8637;BME280;4356;49.068;8.658;2023-01-29T02:01:47;101098.97;;;14.64;33.96
8637;BME280;4356;49.068;8.658;2023-01-29T02:04:23;101109.59;;;14.65;33.94
8637;BME280;4356;49.068;8.658;2023-01-29T02:07:13;101100.81;;;14.63;33.84
8637;BME280;4356;49.068;8.658;2023-01-29T02:10:27;101106.72;;;14.67;33.87
8637;BME280;4356;49.068;8.658;2023-01-29T02:12:55;101105.19;;;14.64;33.77
8637;BME280;4356;49.068;8.658;2023-01-29T02:15:21;101099.28;;;14.61;34.09
8637;BME280;4356;49.068;8.658;2023-01-29T02:17:46;101107.91;;;14.64;34.07
8637;BME280;4356;49.068;8.658;2023-01-29T02:20:28;101105.88;;;14.66;33.95
8637;BME280;4356;49.068;8.658;2023-01-29T02:25:49;101109.59;;;14.65;33.81
8637;BME280;4356;49.068;8.658;2023-01-29T02:36:49;101119.06;;;14.61;33.84
8637;BME280;4356;49.068;8.658;2023-01-29T02:39:27;101109.91;;;14.62;34.07
8637;BME280;4356;49.068;8.658;2023-01-29T02:42:25;101115.69;;;14.59;33.39
8637;BME280;4356;49.068;8.658;2023-01-29T02:45:08;101112.13;;;14.59;34.34
8637;BME280;4356;49.068;8.658;2023-01-29T02:47:47;101111.13;;;14.60;33.49
8637;BME280;4356;49.068;8.658;2023-01-29T02:50:31;101110.28;;;14.59;34.08
8637;BME280;4356;49.068;8.658;2023-01-29T02:53:13;101109.28;;;14.60;33.76
8637;BME280;4356;49.068;8.658;2023-01-29T02:58:38;101099.44;;;14.59;33.98
8637;BME280;4356;49.068;8.658;2023-01-29T03:01:14;101094.38;;;14.56;33.84
8637;BME280;4356;49.068;8.658;2023-01-29T03:03:46;101091.69;;;14.56;33.96
8637;BME280;4356;49.068;8.658;2023-01-29T03:06:27;101094.38;;;14.56;33.94
8637;BME280;4356;49.068;8.658;2023-01-29T03:09:08;101092.84;;;14.54;34.02
8637;BME280;4356;49.068;8.658;2023-01-29T03:11:41;101093.19;;;14.59;34.15
8637;BME280;4356;49.068;8.658;2023-01-29T03:14:21;101071.22;;;14.46;34.22
8637;BME280;4356;49.068;8.658;2023-01-29T03:16:51;101088.63;;;14.51;34.01
8637;BME280;4356;49.068;8.658;2023-01-29T03:19:21;101094.22;;;14.58;33.68
8637;BME280;4356;49.068;8.658;2023-01-29T03:21:54;101085.41;;;14.56;34.01
8637;BME280;4356;49.068;8.658;2023-01-29T03:24:49;101093.34;;;14.57;33.74
8637;BME280;4356;49.068;8.658;2023-01-29T03:27:55;101091.00;;;14.54;34.15
8637;BME280;4356;49.068;8.658;2023-01-29T03:30:53;101090.81;;;14.56;33.92
8637;BME280;4356;49.068;8.658;2023-01-29T03:33:51;101064.75;;;14.38;34.05
8637;BME280;4356;49.068;8.658;2023-01-29T03:36:38;101095.19;;;14.57;33.80
8637;BME280;4356;49.068;8.658;2023-01-29T03:39:10;101083.06;;;14.53;33.79
8637;BME280;4356;49.068;8.658;2023-01-29T03:44:46;101096.56;;;14.53;33.68
8637;BME280;4356;49.068;8.658;2023-01-29T03:47:26;101094.38;;;14.56;33.70
8637;BME280;4356;49.068;8.658;2023-01-29T03:50:02;101093.19;;;14.51;33.53
8637;BME280;4356;49.068;8.658;2023-01-29T03:52:44;101107.06;;;14.56;33.78
8637;BME280;4356;49.068;8.658;2023-01-29T03:58:38;101099.47;;;14.51;34.06
8637;BME280;4356;49.068;8.658;2023-01-29T04:03:56;101109.25;;;14.52;34.44
8637;BME280;4356;49.068;8.658;2023-01-29T04:06:29;101103.84;;;14.52;33.67
8637;BME280;4356;49.068;8.658;2023-01-29T04:09:05;101098.91;;;14.48;33.91
8637;BME280;4356;49.068;8.658;2023-01-29T04:11:34;101112.28;;;14.49;34.19
8637;BME280;4356;49.068;8.658;2023-01-29T04:14:01;101109.72;;;14.48;33.61
8637;BME280;4356;49.068;8.658;2023-01-29T04:16:35;101114.66;;;14.52;33.48
8637;BME280;4356;49.068;8.658;2023-01-29T04:19:02;101103.00;;;14.43;34.22
8637;BME280;4356;49.068;8.658;2023-01-29T04:21:29;101107.56;;;14.51;33.49
8637;BME280;4356;49.068;8.658;2023-01-29T04:23:56;101105.69;;;14.52;34.17
8637;BME280;4356;49.068;8.658;2023-01-29T04:29:19;101101.31;;;14.51;33.54
8637;BME280;4356;49.068;8.658;2023-01-29T04:31:50;101104.69;;;14.53;33.61
8637;BME280;4356;49.068;8.658;2023-01-29T04:34:28;101106.38;;;14.46;33.42
8637;BME280;4356;49.068;8.658;2023-01-29T04:37:14;101123.81;;;14.51;33.56
8637;BME280;4356;49.068;8.658;2023-01-29T04:42:36;101105.88;;;14.42;33.81
8637;BME280;4356;49.068;8.658;2023-01-29T04:50:36;101112.28;;;14.49;34.06
8637;BME280;4356;49.068;8.658;2023-01-29T04:53:21;101108.06;;;14.47;33.45
8637;BME280;4356;49.068;8.658;2023-01-29T04:56:05;101106.03;;;14.49;33.75
8637;BME280;4356;49.068;8.658;2023-01-29T04:58:46;101118.03;;;14.46;33.58
8637;BME280;4356;49.068;8.658;2023-01-29T05:01:16;101116.34;;;14.45;33.98
8637;BME280;4356;49.068;8.658;2023-01-29T05:03:46;101103.81;;;14.36;33.42
8637;BME280;4356;49.068;8.658;2023-01-29T05:06:15;101123.25;;;14.48;33.48
8637;BME280;4356;49.068;8.658;2023-01-29T05:08:43;101123.25;;;14.48;33.68
8637;BME280;4356;49.068;8.658;2023-01-29T05:11:10;101122.09;;;14.42;33.27
8637;BME280;4356;49.068;8.658;2023-01-29T05:13:38;101123.59;;;14.44;33.70
8637;BME280;4356;49.068;8.658;2023-01-29T05:16:19;101110.75;;;14.47;33.72
8637;BME280;4356;49.068;8.658;2023-01-29T05:18:47;101094.03;;;14.43;33.48
8637;BME280;4356;49.068;8.658;2023-01-29T05:21:12;101100.78;;;14.47;33.85
8637;BME280;4356;49.068;8.658;2023-01-29T05:23:38;101094.69;;;14.45;33.25
8637;BME280;4356;49.068;8.658;2023-01-29T05:26:04;101085.38;;;14.48;33.52
8637;BME280;4356;49.068;8.658;2023-01-29T05:28:30;101079.16;;;14.47;33.96
8637;BME280;4356;49.068;8.658;2023-01-29T05:30:56;101061.75;;;14.41;33.57
8637;BME280;4356;49.068;8.658;2023-01-29T05:33:25;101070.38;;;14.45;33.46
8637;BME280;4356;49.068;8.658;2023-01-29T05:35:52;101073.25;;;14.43;33.35
8637;BME280;4356;49.068;8.658;2023-01-29T05:38:18;101078.81;;;14.42;33.87
8637;BME280;4356;49.068;8.658;2023-01-29T05:40:45;101073.41;;;14.42;33.35
8637;BME280;4356;49.068;8.658;2023-01-29T05:43:16;101073.06;;;14.45;33.34
8637;BME280;4356;49.068;8.658;2023-01-29T05:45:42;101074.22;;;14.42;33.67
8637;BME280;4356;49.068;8.658;2023-01-29T05:48:07;101083.88;;;14.45;33.84
8637;BME280;4356;49.068;8.658;2023-01-29T05:50:33;101087.75;;;14.42;33.09
8637;BME280;4356;49.068;8.658;2023-01-29T05:53:00;101088.25;;;14.46;33.57
8637;BME280;4356;49.068;8.658;2023-01-29T05:55:26;101083.03;;;14.44;33.57
8637;BME280;4356;49.068;8.658;2023-01-29T05:57:53;101092.84;;;14.46;33.38
8637;BME280;4356;49.068;8.658;2023-01-29T06:00:19;101093.84;;;14.44;33.57
8637;BME280;4356;49.068;8.658;2023-01-29T06:02:48;101093.34;;;14.41;33.60
8637;BME280;4356;49.068;8.658;2023-01-29T06:05:14;101095.56;;;14.46;33.56
8637;BME280;4356;49.068;8.658;2023-01-29T06:07:40;101096.56;;;14.44;33.68
8637;BME280;4356;49.068;8.658;2023-01-29T06:10:12;101095.56;;;14.46;33.70
8637;BME280;4356;49.068;8.658;2023-01-29T06:12:38;101099.94;;;14.47;33.45
8637;BME280;4356;49.068;8.658;2023-01-29T06:15:04;101095.03;;;14.42;33.47
8637;BME280;4356;49.068;8.658;2023-01-29T06:17:30;101094.03;;;14.43;33.51
8637;BME280;4356;49.068;8.658;2023-01-29T06:19:55;101101.78;;;14.46;33.72
8637;BME280;4356;49.068;8.658;2023-01-29T06:22:21;101103.50;;;14.47;33.31
8637;BME280;4356;49.068;8.658;2023-01-29T06:24:47;101102.66;;;14.47;33.56
8637;BME280;4356;49.068;8.658;2023-01-29T06:27:12;101094.03;;;14.43;33.81
8637;BME280;4356;49.068;8.658;2023-01-29T06:29:38;101091.31;;;14.43;33.62
8637;BME280;4356;49.068;8.658;2023-01-29T06:32:04;101085.56;;;14.46;33.19
8637;BME280;4356;49.068;8.658;2023-01-29T06:34:30;101089.97;;;14.47;33.28
8637;BME280;4356;49.068;8.658;2023-01-29T06:36:56;101087.44;;;14.46;33.27
8637;BME280;4356;49.068;8.658;2023-01-29T06:39:21;101091.31;;;14.43;33.44
8637;BME280;4356;49.068;8.658;2023-01-29T06:41:47;101081.66;;;14.40;33.41
8637;BME280;4356;49.068;8.658;2023-01-29T06:44:13;101083.19;;;14.43;33.53
8637;BME280;4356;49.068;8.658;2023-01-29T06:46:39;101103.69;;;14.46;33.24
8637;BME280;4356;49.068;8.658;2023-01-29T06:49:04;101087.59;;;14.44;33.57
8637;BME280;4356;49.068;8.658;2023-01-29T06:51:30;101086.41;;;14.47;33.13
8637;BME280;4356;49.068;8.658;2023-01-29T06:53:56;101090.47;;;14.42;33.23
8637;BME280;4356;49.068;8.658;2023-01-29T06:56:22;101092.50;;;14.49;33.40
8637;BME280;4356;49.068;8.658;2023-01-29T06:58:48;101086.59;;;14.45;33.36
8637;BME280;4356;49.068;8.658;2023-01-29T07:01:14;101093.50;;;14.48;33.84
8637;BME280;4356;49.068;8.658;2023-01-29T07:03:40;101099.09;;;14.46;33.42
8637;BME280;4356;49.068;8.658;2023-01-29T07:06:07;101097.41;;;14.45;33.16
8637;BME280;4356;49.068;8.658;2023-01-29T07:08:37;101105.00;;;14.50;33.33
8637;BME280;4356;49.068;8.658;2023-01-29T07:11:04;101111.28;;;14.50;32.88
8637;BME280;4356;49.068;8.658;2023-01-29T07:13:30;101101.63;;;14.48;33.59
8637;BME280;4356;49.068;8.658;2023-01-29T07:16:00;101108.75;;;14.49;33.50
8637;BME280;4356;49.068;8.658;2023-01-29T07:18:27;101114.84;;;14.51;33.36
8637;BME280;4356;49.068;8.658;2023-01-29T07:20:54;101102.81;;;14.45;33.57
8637;BME280;4356;49.068;8.658;2023-01-29T07:23:20;101106.38;;;14.46;33.54
8637;BME280;4356;49.068;8.658;2023-01-29T07:25:48;101106.38;;;14.46;33.31
8637;BME280;4356;49.068;8.658;2023-01-29T07:28:16;101108.06;;;14.47;33.16
8637;BME280;4356;49.068;8.658;2023-01-29T07:30:42;101105.34;;;14.47;33.78
8637;BME280;4356;49.068;8.658;2023-01-29T07:33:09;101097.59;;;14.43;33.07
8637;BME280;4356;49.068;8.658;2023-01-29T07:35:37;101107.88;;;14.48;33.51
8637;BME280;4356;49.068;8.658;2023-01-29T07:38:03;101100.63;;;14.49;33.52
8637;BME280;4356;49.068;8.658;2023-01-29T07:40:29;101091.81;;;14.38;33.30
8637;BME280;4356;49.068;8.658;2023-01-29T07:42:59;101121.59;;;14.47;33.21
8637;BME280;4356;49.068;8.658;2023-01-29T07:45:24;101132.91;;;14.50;33.15
8637;BME280;4356;49.068;8.658;2023-01-29T07:47:54;101143.91;;;14.49;33.24
8637;BME280;4356;49.068;8.658;2023-01-29T07:50:24;101148.28;;;14.50;32.98
8637;BME280;4356;49.068;8.658;2023-01-29T07:52:51;101136.94;;;14.46;33.43
8637;BME280;4356;49.068;8.658;2023-01-29T07:55:18;101148.16;;;14.51;33.43
8637;BME280;4356;49.068;8.658;2023-01-29T07:57:44;101148.28;;;14.41;33.07
8637;BME280;4356;49.068;8.658;2023-01-29T08:00:10;101157.09;;;14.52;33.22
8637;BME280;4356;49.068;8.658;2023-01-29T08:02:36;101152.03;;;14.49;33.49
8637;BME280;4356;49.068;8.658;2023-01-29T08:05:02;101149.13;;;14.50;33.31
8637;BME280;4356;49.068;8.658;2023-01-29T08:07:28;101153.38;;;14.53;33.04
8637;BME280;4356;49.068;8.658;2023-01-29T08:09:54;101153.69;;;14.50;33.83
8637;BME280;4356;49.068;8.658;2023-01-29T08:12:19;101148.47;;;14.48;33.17
8637;BME280;4356;49.068;8.658;2023-01-29T08:14:45;101152.03;;;14.49;33.15
8637;BME280;4356;49.068;8.658;2023-01-29T08:17:12;101156.25;;;14.51;33.37
8637;BME280;4356;49.068;8.658;2023-01-29T08:19:38;101167.72;;;14.53;33.12
8637;BME280;4356;49.068;8.658;2023-01-29T08:22:04;101157.44;;;14.49;33.35
8637;BME280;4356;49.068;8.658;2023-01-29T08:24:30;101170.44;;;14.53;33.39
8637;BME280;4356;49.068;8.658;2023-01-29T08:26:56;101162.31;;;14.53;33.24
8637;BME280;4356;49.068;8.658;2023-01-29T08:29:22;101157.44;;;14.49;32.91
8637;BME280;4356;49.068;8.658;2023-01-29T08:31:48;101164.50;;;14.50;33.47
8637;BME280;4356;49.068;8.658;2023-01-29T08:34:15;101158.41;;;14.48;33.30
8637;BME280;4356;49.068;8.658;2023-01-29T08:36:40;101166.91;;;14.53;33.23
8637;BME280;4356;49.068;8.658;2023-01-29T08:39:06;101166.75;;;14.54;32.62
8637;BME280;4356;49.068;8.658;2023-01-29T08:41:32;101157.94;;;14.52;33.14
8637;BME280;4356;49.068;8.658;2023-01-29T08:43:58;101166.56;;;14.56;33.10
8637;BME280;4356;49.068;8.658;2023-01-29T08:46:25;101169.28;;;14.56;32.73
8637;BME280;4356;49.068;8.658;2023-01-29T08:48:51;101166.56;;;14.56;33.33
8637;BME280;4356;49.068;8.658;2023-01-29T08:51:16;101158.44;;;14.56;33.38
8637;BME280;4356;49.068;8.658;2023-01-29T08:53:42;101160.97;;;14.57;32.94
8637;BME280;4356;49.068;8.658;2023-01-29T08:56:08;101154.72;;;14.57;33.60
8637;BME280;4356;49.068;8.658;2023-01-29T08:58:37;101157.13;;;14.60;32.94
8637;BME280;4356;49.068;8.658;2023-01-29T09:01:08;101163.53;;;14.59;33.10
8637;BME280;4356;49.068;8.658;2023-01-29T09:03:34;101160.69;;;14.60;33.02
8637;BME280;4356;49.068;8.658;2023-01-29T09:06:00;101161.31;;;14.62;33.25
8637;BME280;4356;49.068;8.658;2023-01-29T09:08:26;101155.09;;;14.62;33.08
8637;BME280;4356;49.068;8.658;2023-01-29T09:10:52;101166.09;;;14.68;33.13
8637;BME280;4356;49.068;8.658;2023-01-29T09:13:18;101167.78;;;14.69;33.27
8637;BME280;4356;49.068;8.658;2023-01-29T09:15:43;101171.16;;;14.71;32.55
8637;BME280;4356;49.068;8.658;2023-01-29T09:18:09;101170.16;;;14.72;32.91
8637;BME280;4356;49.068;8.658;2023-01-29T09:20:35;101181.31;;;14.77;33.11
8637;BME280;4356;49.068;8.658;2023-01-29T09:23:07;101174.06;;;14.78;32.56
8637;BME280;4356;49.068;8.658;2023-01-29T09:25:34;101177.44;;;14.80;32.83
8637;BME280;4356;49.068;8.658;2023-01-29T09:27:59;101156.63;;;14.80;32.88
8637;BME280;4356;49.068;8.658;2023-01-29T09:30:25;101148.66;;;14.79;32.62
8637;BME280;4356;49.068;8.658;2023-01-29T09:32:51;101134.97;;;14.80;32.88
8637;BME280;4356;49.068;8.658;2023-01-29T09:35:16;101122.13;;;14.82;33.12
8637;BME280;4356;49.068;8.658;2023-01-29T09:37:46;101112.16;;;14.83;32.53
8637;BME280;4356;49.068;8.658;2023-01-29T09:43:17;101113.84;;;14.92;32.91
8637;BME280;4356;49.068;8.658;2023-01-29T09:45:52;101108.78;;;14.89;32.90
8637;BME280;4356;49.068;8.658;2023-01-29T09:48:21;101109.44;;;14.91;32.90
8637;BME280;4356;49.068;8.658;2023-01-29T09:50:50;101102.69;;;14.87;32.44
8637;BME280;4356;49.068;8.658;2023-01-29T09:55:51;101129.41;;;14.98;32.68
8637;BME280;4356;49.068;8.658;2023-01-29T09:58:33;101109.97;;;14.94;32.33
8637;BME280;4356;49.068;8.658;2023-01-29T10:01:38;101120.09;;;15.00;32.40
8637;BME280;4356;49.068;8.658;2023-01-29T10:23:32;101135.66;;;15.06;32.58
8637;BME280;4356;49.068;8.658;2023-01-29T10:25:58;101130.41;;;15.05;32.29
8637;BME280;4356;49.068;8.658;2023-01-29T10:28:31;101133.47;;;15.10;32.41
8637;BME280;4356;49.068;8.658;2023-01-29T10:31:10;101127.38;;;15.08;32.12
8637;BME280;4356;49.068;8.658;2023-01-29T10:33:42;101137.03;;;15.10;32.09
8637;BME280;4356;49.068;8.658;2023-01-29T10:36:18;101137.03;;;15.10;32.49
8637;BME280;4356;49.068;8.658;2023-01-29T10:38:46;101147.50;;;15.13;32.37
8637;BME280;4356;49.068;8.658;2023-01-29T10:42:12;101131.09;;;15.07;32.03
8637;BME280;4356;49.068;8.658;2023-01-29T10:50:38;101148.03;;;15.09;32.11
8637;BME280;4356;49.068;8.658;2023-01-29T10:58:38;101132.28;;;15.12;32.91
8637;BME280;4356;49.068;8.658;2023-01-29T11:01:08;101120.78;;;15.10;32.60
8637;BME280;4356;49.068;8.658;2023-01-29T11:03:34;101118.56;;;15.14;33.01
8637;BME280;4356;49.068;8.658;2023-01-29T11:06:11;101110.63;;;15.12;32.43
8637;BME280;4356;49.068;8.658;2023-01-29T11:08:51;101107.91;;;15.12;32.33
8637;BME280;4356;49.068;8.658;2023-01-29T11:11:19;101110.28;;;15.15;32.97
8637;BME280;4356;49.068;8.658;2023-01-29T11:14:03;101101.97;;;15.17;32.55
8637;BME280;4356;49.068;8.658;2023-01-29T11:16:39;101094.19;;;15.14;32.48
8637;BME280;4356;49.068;8.658;2023-01-29T11:19:06;101093.16;;;15.15;32.43
8637;BME280;4356;49.068;8.658;2023-01-29T11:21:31;101085.22;;;15.13;32.65
8637;BME280;4356;49.068;8.658;2023-01-29T11:24:14;101076.59;;;15.18;32.65
8637;BME280;4356;49.068;8.658;2023-01-29T11:26:43;101076.91;;;15.23;32.30
8637;BME280;4356;49.068;8.658;2023-01-29T11:29:42;101072.00;;;15.26;32.01
8637;BME280;4356;49.068;8.658;2023-01-29T11:32:23;101047.63;;;15.18;32.32
8637;BME280;4356;49.068;8.658;2023-01-29T11:37:36;101064.88;;;15.33;32.66
8637;BME280;4356;49.068;8.658;2023-01-29T11:42:49;101067.22;;;15.36;32.31
8637;BME280;4356;49.068;8.658;2023-01-29T11:47:53;101051.66;;;15.38;32.18
8637;BME280;4356;49.068;8.658;2023-01-29T11:50:30;101052.84;;;15.44;32.11
8637;BME280;4356;49.068;8.658;2023-01-29T11:53:00;101037.91;;;15.40;32.04
8637;BME280;4356;49.068;8.658;2023-01-29T11:55:29;101051.31;;;15.50;32.43
8637;BME280;4356;49.068;8.658;2023-01-29T11:58:05;101035.91;;;15.50;31.76
8637;BME280;4356;49.068;8.658;2023-01-29T12:00:34;101021.69;;;15.48;32.60
8637;BME280;4356;49.068;8.658;2023-01-29T12:03:15;101028.28;;;15.54;32.21
8637;BME280;4356;49.068;8.658;2023-01-29T12:06:30;101016.25;;;15.56;32.23
8637;BME280;4356;49.068;8.658;2023-01-29T12:08:59;101010.66;;;15.58;32.15
8637;BME280;4356;49.068;8.658;2023-01-29T12:11:29;100997.63;;;15.53;32.34
8637;BME280;4356;49.068;8.658;2023-01-29T12:13:58;101001.66;;;15.57;32.10
8637;BME280;4356;49.068;8.658;2023-01-29T12:16:25;101009.44;;;15.60;32.20
8637;BME280;4356;49.068;8.658;2023-01-29T12:18:57;100993.53;;;15.57;32.07
8637;BME280;4356;49.068;8.658;2023-01-29T12:21:35;100988.59;;;15.61;31.95
8637;BME280;4356;49.068;8.658;2023-01-29T12:24:30;100985.72;;;15.62;31.84
8637;BME280;4356;49.068;8.658;2023-01-29T12:27:13;100979.97;;;15.65;32.25
8637;BME280;4356;49.068;8.658;2023-01-29T12:29:48;100971.16;;;15.63;32.24
8637;BME280;4356;49.068;8.658;2023-01-29T12:33:35;100965.56;;;15.65;31.88
8637;BME280;4356;49.068;8.658;2023-01-29T12:35:32;100959.09;;;15.66;31.94
8637;BME280;4356;49.068;8.658;2023-01-29T12:38:19;100957.06;;;15.68;31.85
8637;BME280;4356;49.068;8.658;2023-01-29T12:43:16;100937.09;;;15.69;32.24
8637;BME280;4356;49.068;8.658;2023-01-29T12:45:44;100935.88;;;15.71;31.84
8637;BME280;4356;49.068;8.658;2023-01-29T12:48:22;100934.19;;;15.70;31.92
8637;BME280;4356;49.068;8.658;2023-01-29T12:50:49;100923.53;;;15.69;31.93
8637;BME280;4356;49.068;8.658;2023-01-29T12:53:34;100923.34;;;15.70;32.07
8637;BME280;4356;49.068;8.658;2023-01-29T12:56:10;100922.13;;;15.73;32.27
8637;BME280;4356;49.068;8.658;2023-01-29T12:58:46;100910.09;;;15.75;32.01
8637;BME280;4356;49.068;8.658;2023-01-29T13:01:39;100908.91;;;15.78;31.84
8637;BME280;4356;49.068;8.658;2023-01-29T13:06:42;100907.69;;;15.80;31.74
8637;BME280;4356;49.068;8.658;2023-01-29T13:09:40;100911.91;;;15.83;31.70
8637;BME280;4356;49.068;8.658;2023-01-29T13:12:16;100902.28;;;15.80;31.83
8637;BME280;4356;49.068;8.658;2023-01-29T13:15:01;100908.34;;;15.82;31.31
8637;BME280;4356;49.068;8.658;2023-01-29T13:17:43;100902.94;;;15.82;31.53
8637;BME280;4356;49.068;8.658;2023-01-29T13:20:23;100905.47;;;15.84;31.38
8637;BME280;4356;49.068;8.658;2023-01-29T13:22:53;100905.84;;;15.81;31.45
8637;BME280;4356;49.068;8.658;2023-01-29T13:25:20;100911.72;;;15.84;31.92
8637;BME280;4356;49.068;8.658;2023-01-29T13:27:47;100901.25;;;15.81;31.51
8637;BME280;4356;49.068;8.658;2023-01-29T13:30:31;100909.88;;;15.85;31.38
8637;BME280;4356;49.068;8.658;2023-01-29T13:32:59;100903.13;;;15.81;31.73
8637;BME280;4356;49.068;8.658;2023-01-29T13:35:44;100912.78;;;15.83;31.66
8637;BME280;4356;49.068;8.658;2023-01-29T13:38:31;100909.03;;;15.84;31.46
8637;BME280;4356;49.068;8.658;2023-01-29T13:41:01;100911.06;;;15.82;31.24
8637;BME280;4356;49.068;8.658;2023-01-29T13:43:34;100909.22;;;15.83;31.48
8637;BME280;4356;49.068;8.658;2023-01-29T13:46:07;100905.84;;;15.81;31.51
8637;BME280;4356;49.068;8.658;2023-01-29T13:48:41;100908.16;;;15.84;31.44
8637;BME280;4356;49.068;8.658;2023-01-29T13:51:10;100901.94;;;15.83;31.54
8637;BME280;4356;49.068;8.658;2023-01-29T13:53:41;100902.75;;;15.84;32.03
8637;BME280;4356;49.068;8.658;2023-01-29T13:58:59;100893.81;;;15.83;31.71
8637;BME280;4356;49.068;8.658;2023-01-29T14:04:25;100882.81;;;15.77;31.94
8637;BME280;4356;49.068;8.658;2023-01-29T14:06:55;100880.97;;;15.77;32.14
8637;BME280;4356;49.068;8.658;2023-01-29T14:12:03;100869.44;;;15.75;31.84
8637;BME280;4356;49.068;8.658;2023-01-29T14:17:17;100863.56;;;15.72;31.73
8637;BME280;4356;49.068;8.658;2023-01-29T14:19:52;100863.38;;;15.73;31.31
8637;BME280;4356;49.068;8.658;2023-01-29T14:22:23;100860.28;;;15.76;31.78
8637;BME280;4356;49.068;8.658;2023-01-29T14:25:03;100829.78;;;15.60;31.43
8637;BME280;4356;49.068;8.658;2023-01-29T14:27:30;100840.06;;;15.64;31.96
8637;BME280;4356;49.068;8.658;2023-01-29T14:30:02;100859.81;;;15.73;31.72
8637;BME280;4356;49.068;8.658;2023-01-29T14:32:31;100859.16;;;15.71;31.86
8637;BME280;4356;49.068;8.658;2023-01-29T14:35:02;100867.78;;;15.74;31.86
8637;BME280;4356;49.068;8.658;2023-01-29T14:37:35;100862.69;;;15.71;31.63
8637;BME280;4356;49.068;8.658;2023-01-29T14:40:22;100876.06;;;15.73;31.96
8637;BME280;4356;49.068;8.658;2023-01-29T14:43:02;100886.91;;;15.73;31.77
8637;BME280;4356;49.068;8.658;2023-01-29T14:45:37;100888.78;;;15.72;31.82
8637;BME280;4356;49.068;8.658;2023-01-29T14:58:20;100866.44;;;15.70;31.71
8637;BME280;4356;49.068;8.658;2023-01-29T15:00:50;100873.19;;;15.74;31.57
8637;BME280;4356;49.068;8.658;2023-01-29T15:03:40;100866.75;;;15.75;31.24
8637;BME280;4356;49.068;8.658;2023-01-29T15:06:13;100856.28;;;15.72;31.38
8637;BME280;4356;49.068;8.658;2023-01-29T15:08:46;100871.13;;;15.76;31.69
8637;BME280;4356;49.068;8.658;2023-01-29T15:11:21;100869.44;;;15.75;31.42
8637;BME280;4356;49.068;8.658;2023-01-29T15:14:07;100865.22;;;15.73;31.42
8637;BME280;4356;49.068;8.658;2023-01-29T15:16:52;100865.88;;;15.75;31.30
8637;BME280;4356;49.068;8.658;2023-01-29T15:19:28;100876.38;;;15.78;31.33
8637;BME280;4356;49.068;8.658;2023-01-29T15:22:12;100873.69;;;15.78;31.42